sensor_id;sensor_type;location;lat;lon;timestamp;P1;P2;P0
80935;PMS7003;70392;51.144;17.050;2023-07-20T03:24:32;4;3;3
80935;PMS7003;70392;51.144;17.050;2023-07-20T03:26:45;10;10;7
80935;PMS7003;70392;51.144;17.050;2023-07-20T03:29:01;12;9;7
80935;PMS7003;70392;51.144;17.050;2023-07-20T03:31:18;11;11;7
80935;PMS7003;70392;51.144;17.050;2023-07-20T03:33:37;12;10;7
80935;PMS7003;70392;51.144;17.050;2023-07-20T03:35:53;7;7;6
80935;PMS7003;70392;51.144;17.050;2023-07-20T03:38:12;7;5;4
80935;PMS7003;70392;51.144;17.050;2023-07-20T03:40:28;8;8;5
80935;PMS7003;70392;51.144;17.050;2023-07-20T03:42:44;11;11;5
80935;PMS7003;70392;51.144;17.050;2023-07-20T03:45:10;8;8;7
80935;PMS7003;70392;51.144;17.050;2023-07-20T03:47:27;16;14;8
80935;PMS7003;70392;51.144;17.050;2023-07-20T03:49:47;9;9;5
80935;PMS7003;70392;51.144;17.050;2023-07-20T03:52:04;9;8;6
80935;PMS7003;70392;51.144;17.050;2023-07-20T03:54:23;14;10;7
80935;PMS7003;70392;51.144;17.050;2023-07-20T03:56:39;10;10;7
80935;PMS7003;70392;51.144;17.050;2023-07-20T03:58:55;16;10;6
80935;PMS7003;70392;51.144;17.050;2023-07-20T04:01:13;10;7;7
80935;PMS7003;70392;51.144;17.050;2023-07-20T04:03:29;9;9;7
80935;PMS7003;70392;51.144;17.050;2023-07-20T04:05:45;13;13;8
80935;PMS7003;70392;51.144;17.050;2023-07-20T04:08:04;14;13;8
80935;PMS7003;70392;51.144;17.050;2023-07-20T04:10:20;14;14;8
80935;PMS7003;70392;51.144;17.050;2023-07-20T04:12:36;9;9;6
80935;PMS7003;70392;51.144;17.050;2023-07-20T04:14:55;12;12;6
80935;PMS7003;70392;51.144;17.050;2023-07-20T04:17:12;8;7;5
80935;PMS7003;70392;51.144;17.050;2023-07-20T04:19:29;15;9;6
80935;PMS7003;70392;51.144;17.050;2023-07-20T04:21:45;9;9;7
80935;PMS7003;70392;51.144;17.050;2023-07-20T04:24:02;10;10;6
80935;PMS7003;70392;51.144;17.050;2023-07-20T04:26:18;12;10;5
80935;PMS7003;70392;51.144;17.050;2023-07-20T04:28:34;11;8;7
80935;PMS7003;70392;51.144;17.050;2023-07-20T04:30:52;17;12;8
80935;PMS7003;70392;51.144;17.050;2023-07-20T04:33:11;13;12;9
80935;PMS7003;70392;51.144;17.050;2023-07-20T04:35:44;15;12;9
80935;PMS7003;70392;51.144;17.050;2023-07-20T04:38:02;10;10;7
80935;PMS7003;70392;51.144;17.050;2023-07-20T04:40:18;16;11;8
80935;PMS7003;70392;51.144;17.050;2023-07-20T04:43:08;17;16;10
80935;PMS7003;70392;51.144;17.050;2023-07-20T04:45:24;11;11;8
80935;PMS7003;70392;51.144;17.050;2023-07-20T04:47:41;15;15;10
80935;PMS7003;70392;51.144;17.050;2023-07-20T04:49:57;11;9;7
80935;PMS7003;70392;51.144;17.050;2023-07-20T04:52:13;15;13;9
80935;PMS7003;70392;51.144;17.050;2023-07-20T04:54:39;18;12;7
80935;PMS7003;70392;51.144;17.050;2023-07-20T04:56:56;13;10;6
80935;PMS7003;70392;51.144;17.050;2023-07-20T04:59:12;12;10;8
80935;PMS7003;70392;51.144;17.050;2023-07-20T05:01:36;9;9;5
80935;PMS7003;70392;51.144;17.050;2023-07-20T05:03:53;13;12;7
80935;PMS7003;70392;51.144;17.050;2023-07-20T05:06:16;14;14;9
80935;PMS7003;70392;51.144;17.050;2023-07-20T05:08:32;13;13;8
80935;PMS7003;70392;51.144;17.050;2023-07-20T05:10:50;16;14;9
80935;PMS7003;70392;51.144;17.050;2023-07-20T05:13:06;12;11;8
80935;PMS7003;70392;51.144;17.050;2023-07-20T05:15:23;14;12;8
80935;PMS7003;70392;51.144;17.050;2023-07-20T05:17:41;15;15;8
80935;PMS7003;70392;51.144;17.050;2023-07-20T05:20:06;13;12;10
80935;PMS7003;70392;51.144;17.050;2023-07-20T05:22:25;15;15;10
80935;PMS7003;70392;51.144;17.050;2023-07-20T05:24:44;11;11;8
80935;PMS7003;70392;51.144;17.050;2023-07-20T05:27:00;18;18;9
80935;PMS7003;70392;51.144;17.050;2023-07-20T05:29:16;11;11;6
80935;PMS7003;70392;51.144;17.050;2023-07-20T05:31:32;17;14;8
80935;PMS7003;70392;51.144;17.050;2023-07-20T05:33:49;25;20;13
80935;PMS7003;70392;51.144;17.050;2023-07-20T05:36:12;18;18;11
80935;PMS7003;70392;51.144;17.050;2023-07-20T05:38:28;14;14;10
80935;PMS7003;70392;51.144;17.050;2023-07-20T05:40:46;19;19;12
80935;PMS7003;70392;51.144;17.050;2023-07-20T05:43:07;16;13;8
80935;PMS7003;70392;51.144;17.050;2023-07-20T05:45:23;17;17;13
80935;PMS7003;70392;51.144;17.050;2023-07-20T05:48:19;21;18;11
80935;PMS7003;70392;51.144;17.050;2023-07-20T05:50:35;19;18;12
80935;PMS7003;70392;51.144;17.050;2023-07-20T05:52:57;21;20;14
80935;PMS7003;70392;51.144;17.050;2023-07-20T05:55:34;23;18;13
80935;PMS7003;70392;51.144;17.050;2023-07-20T05:57:51;15;14;11
80935;PMS7003;70392;51.144;17.050;2023-07-20T06:00:08;22;18;12
80935;PMS7003;70392;51.144;17.050;2023-07-20T06:02:26;16;16;11
80935;PMS7003;70392;51.144;17.050;2023-07-20T06:05:03;16;16;10
80935;PMS7003;70392;51.144;17.050;2023-07-20T06:07:20;15;14;10
80935;PMS7003;70392;51.144;17.050;2023-07-20T06:10:11;14;14;9
80935;PMS7003;70392;51.144;17.050;2023-07-20T06:12:27;21;21;10
80935;PMS7003;70392;51.144;17.050;2023-07-20T06:17:41;18;18;11
80935;PMS7003;70392;51.144;17.050;2023-07-20T06:20:31;16;15;11
80935;PMS7003;70392;51.144;17.050;2023-07-20T06:22:48;12;12;9
80935;PMS7003;70392;51.144;17.050;2023-07-20T06:25:05;18;16;11
80935;PMS7003;70392;51.144;17.050;2023-07-20T06:27:23;17;16;11
80935;PMS7003;70392;51.144;17.050;2023-07-20T06:29:42;21;18;11
80935;PMS7003;70392;51.144;17.050;2023-07-20T06:32:33;13;13;9
80935;PMS7003;70392;51.144;17.050;2023-07-20T06:34:52;19;18;11
80935;PMS7003;70392;51.144;17.050;2023-07-20T06:37:15;19;19;11
80935;PMS7003;70392;51.144;17.050;2023-07-20T06:39:31;17;16;14
80935;PMS7003;70392;51.144;17.050;2023-07-20T06:41:48;19;19;14
80935;PMS7003;70392;51.144;17.050;2023-07-20T06:44:04;25;20;12
80935;PMS7003;70392;51.144;17.050;2023-07-20T06:46:30;19;18;12
80935;PMS7003;70392;51.144;17.050;2023-07-20T06:48:47;18;16;13
80935;PMS7003;70392;51.144;17.050;2023-07-20T06:51:03;17;17;11
80935;PMS7003;70392;51.144;17.050;2023-07-20T06:53:21;16;16;12
80935;PMS7003;70392;51.144;17.050;2023-07-20T06:55:41;18;18;11
80935;PMS7003;70392;51.144;17.050;2023-07-20T06:57:58;18;18;12
80935;PMS7003;70392;51.144;17.050;2023-07-20T07:00:16;19;19;12
80935;PMS7003;70392;51.144;17.050;2023-07-20T07:02:33;17;17;13
80935;PMS7003;70392;51.144;17.050;2023-07-20T07:04:50;23;21;10
80935;PMS7003;70392;51.144;17.050;2023-07-20T07:07:05;15;12;9
80935;PMS7003;70392;51.144;17.050;2023-07-20T07:09:27;17;17;11
80935;PMS7003;70392;51.144;17.050;2023-07-20T07:11:43;21;21;14
80935;PMS7003;70392;51.144;17.050;2023-07-20T07:14:03;16;15;12
80935;PMS7003;70392;51.144;17.050;2023-07-20T07:16:20;17;17;12
80935;PMS7003;70392;51.144;17.050;2023-07-20T07:18:39;23;20;13
80935;PMS7003;70392;51.144;17.050;2023-07-20T07:20:56;19;16;14
80935;PMS7003;70392;51.144;17.050;2023-07-20T07:23:13;18;16;12
80935;PMS7003;70392;51.144;17.050;2023-07-20T07:25:37;23;21;13
80935;PMS7003;70392;51.144;17.050;2023-07-20T07:27:54;17;16;12
80935;PMS7003;70392;51.144;17.050;2023-07-20T07:30:12;21;18;14
80935;PMS7003;70392;51.144;17.050;2023-07-20T07:32:28;21;20;12
80935;PMS7003;70392;51.144;17.050;2023-07-20T07:34:45;14;14;11
80935;PMS7003;70392;51.144;17.050;2023-07-20T07:37:16;15;14;10
80935;PMS7003;70392;51.144;17.050;2023-07-20T07:39:36;16;16;11
80935;PMS7003;70392;51.144;17.050;2023-07-20T07:41:52;20;19;14
80935;PMS7003;70392;51.144;17.050;2023-07-20T07:44:14;18;16;12
80935;PMS7003;70392;51.144;17.050;2023-07-20T07:46:30;21;20;12
80935;PMS7003;70392;51.144;17.050;2023-07-20T07:48:46;16;13;10
80935;PMS7003;70392;51.144;17.050;2023-07-20T07:51:06;14;14;11
80935;PMS7003;70392;51.144;17.050;2023-07-20T07:53:22;14;14;10
80935;PMS7003;70392;51.144;17.050;2023-07-20T07:55:41;19;14;11
80935;PMS7003;70392;51.144;17.050;2023-07-20T07:57:57;18;18;11
80935;PMS7003;70392;51.144;17.050;2023-07-20T08:00:19;15;14;11
80935;PMS7003;70392;51.144;17.050;2023-07-20T08:02:37;20;19;13
80935;PMS7003;70392;51.144;17.050;2023-07-20T08:04:53;20;20;13
80935;PMS7003;70392;51.144;17.050;2023-07-20T08:07:09;18;17;14
80935;PMS7003;70392;51.144;17.050;2023-07-20T08:09:26;20;17;13
80935;PMS7003;70392;51.144;17.050;2023-07-20T08:11:43;17;15;12
80935;PMS7003;70392;51.144;17.050;2023-07-20T08:14:04;17;17;12
80935;PMS7003;70392;51.144;17.050;2023-07-20T08:16:24;14;14;12
80935;PMS7003;70392;51.144;17.050;2023-07-20T08:18:40;23;15;11
80935;PMS7003;70392;51.144;17.050;2023-07-20T08:20:56;15;15;11
80935;PMS7003;70392;51.144;17.050;2023-07-20T08:23:13;21;17;13
80935;PMS7003;70392;51.144;17.050;2023-07-20T08:25:40;15;14;11
80935;PMS7003;70392;51.144;17.050;2023-07-20T08:27:59;16;16;11
80935;PMS7003;70392;51.144;17.050;2023-07-20T08:30:21;15;15;10
80935;PMS7003;70392;51.144;17.050;2023-07-20T08:32:39;14;13;9
80935;PMS7003;70392;51.144;17.050;2023-07-20T08:35:07;13;12;9
80935;PMS7003;70392;51.144;17.050;2023-07-20T08:37:23;11;10;7
80935;PMS7003;70392;51.144;17.050;2023-07-20T08:39:44;16;16;11
80935;PMS7003;70392;51.144;17.050;2023-07-20T08:42:00;10;10;7
80935;PMS7003;70392;51.144;17.050;2023-07-20T08:44:27;8;7;6
80935;PMS7003;70392;51.144;17.050;2023-07-20T08:46:44;7;7;5
80935;PMS7003;70392;51.144;17.050;2023-07-20T08:49:06;7;7;6
80935;PMS7003;70392;51.144;17.050;2023-07-20T08:51:21;6;6;4
80935;PMS7003;70392;51.144;17.050;2023-07-20T08:53:42;10;9;8
80935;PMS7003;70392;51.144;17.050;2023-07-20T08:56:01;9;9;6
80935;PMS7003;70392;51.144;17.050;2023-07-20T08:58:19;6;5;5
80935;PMS7003;70392;51.144;17.050;2023-07-20T09:00:56;9;9;6
80935;PMS7003;70392;51.144;17.050;2023-07-20T09:02:00;11;11;9
80935;PMS7003;70392;51.144;17.050;2023-07-20T09:04:25;11;11;7
80935;PMS7003;70392;51.144;17.050;2023-07-20T09:06:43;8;8;7
80935;PMS7003;70392;51.144;17.050;2023-07-20T09:09:03;11;11;6
80935;PMS7003;70392;51.144;17.050;2023-07-20T09:11:22;13;13;7
80935;PMS7003;70392;51.144;17.050;2023-07-20T09:13:39;7;6;5
80935;PMS7003;70392;51.144;17.050;2023-07-20T09:18:38;14;10;8
80935;PMS7003;70392;51.144;17.050;2023-07-20T09:23:18;7;7;5
80935;PMS7003;70392;51.144;17.050;2023-07-20T09:25:36;13;8;6
80935;PMS7003;70392;51.144;17.050;2023-07-20T09:27:52;8;8;6
80935;PMS7003;70392;51.144;17.050;2023-07-20T09:30:11;9;9;7
80935;PMS7003;70392;51.144;17.050;2023-07-20T09:32:43;8;8;5
80935;PMS7003;70392;51.144;17.050;2023-07-20T09:37:35;9;9;8
80935;PMS7003;70392;51.144;17.050;2023-07-20T09:40:42;7;7;5
80935;PMS7003;70392;51.144;17.050;2023-07-20T09:43:00;9;9;6
80935;PMS7003;70392;51.144;17.050;2023-07-20T09:45:19;8;8;7
80935;PMS7003;70392;51.144;17.050;2023-07-20T09:47:37;7;7;6
80935;PMS7003;70392;51.144;17.050;2023-07-20T09:49:59;6;6;5
80935;PMS7003;70392;51.144;17.050;2023-07-20T09:52:21;7;7;4
80935;PMS7003;70392;51.144;17.050;2023-07-20T09:54:39;4;4;4
80935;PMS7003;70392;51.144;17.050;2023-07-20T09:57:41;7;5;5
80935;PMS7003;70392;51.144;17.050;2023-07-20T09:59:59;5;5;5
80935;PMS7003;70392;51.144;17.050;2023-07-20T10:02:25;10;8;6
80935;PMS7003;70392;51.144;17.050;2023-07-20T10:04:48;9;9;8
80935;PMS7003;70392;51.144;17.050;2023-07-20T10:07:09;7;6;3
80935;PMS7003;70392;51.144;17.050;2023-07-20T10:09:29;8;8;7
80935;PMS7003;70392;51.144;17.050;2023-07-20T10:11:49;13;13;9
80935;PMS7003;70392;51.144;17.050;2023-07-20T10:14:16;6;6;4
80935;PMS7003;70392;51.144;17.050;2023-07-20T10:16:35;6;6;4
80935;PMS7003;70392;51.144;17.050;2023-07-20T10:21:27;7;7;5
80935;PMS7003;70392;51.144;17.050;2023-07-20T10:23:50;5;5;5
80935;PMS7003;70392;51.144;17.050;2023-07-20T10:26:08;10;10;7
80935;PMS7003;70392;51.144;17.050;2023-07-20T10:29:00;5;5;5
80935;PMS7003;70392;51.144;17.050;2023-07-20T10:31:22;4;4;3
80935;PMS7003;70392;51.144;17.050;2023-07-20T10:33:42;3;3;2
80935;PMS7003;70392;51.144;17.050;2023-07-20T10:36:01;6;6;5
80935;PMS7003;70392;51.144;17.050;2023-07-20T10:38:37;6;4;3
80935;PMS7003;70392;51.144;17.050;2023-07-20T10:40:57;8;7;5
80935;PMS7003;70392;51.144;17.050;2023-07-20T10:43:13;5;5;4
80935;PMS7003;70392;51.144;17.050;2023-07-20T10:45:36;6;4;4
80935;PMS7003;70392;51.144;17.050;2023-07-20T10:47:58;5;4;3
80935;PMS7003;70392;51.144;17.050;2023-07-20T10:50:21;4;4;3
80935;PMS7003;70392;51.144;17.050;2023-07-20T10:52:39;4;4;3
80935;PMS7003;70392;51.144;17.050;2023-07-20T10:54:59;6;4;3
80935;PMS7003;70392;51.144;17.050;2023-07-20T10:57:51;7;7;4
80935;PMS7003;70392;51.144;17.050;2023-07-20T11:00:28;3;3;3
80935;PMS7003;70392;51.144;17.050;2023-07-20T11:02:48;3;3;3
80935;PMS7003;70392;51.144;17.050;2023-07-20T11:05:05;4;4;3
80935;PMS7003;70392;51.144;17.050;2023-07-20T11:09:48;5;4;4
80935;PMS7003;70392;51.144;17.050;2023-07-20T11:14:27;3;2;2
80935;PMS7003;70392;51.144;17.050;2023-07-20T11:16:48;4;4;3
80935;PMS7003;70392;51.144;17.050;2023-07-20T11:19:27;3;3;3
80935;PMS7003;70392;51.144;17.050;2023-07-20T11:22:04;6;6;3
80935;PMS7003;70392;51.144;17.050;2023-07-20T11:24:26;0;0;0
80935;PMS7003;70392;51.144;17.050;2023-07-20T11:26:48;8;8;7
80935;PMS7003;70392;51.144;17.050;2023-07-20T11:29:07;5;2;2
80935;PMS7003;70392;51.144;17.050;2023-07-20T11:31:23;4;4;2
80935;PMS7003;70392;51.144;17.050;2023-07-20T11:33:48;10;10;5
80935;PMS7003;70392;51.144;17.050;2023-07-20T11:36:08;7;7;5
80935;PMS7003;70392;51.144;17.050;2023-07-20T11:38:24;6;5;4
80935;PMS7003;70392;51.144;17.050;2023-07-20T11:40:44;6;6;4
80935;PMS7003;70392;51.144;17.050;2023-07-20T11:43:01;8;7;5
80935;PMS7003;70392;51.144;17.050;2023-07-20T11:45:19;6;6;5
80935;PMS7003;70392;51.144;17.050;2023-07-20T11:47:41;8;8;7
80935;PMS7003;70392;51.144;17.050;2023-07-20T11:50:03;6;6;5
80935;PMS7003;70392;51.144;17.050;2023-07-20T11:52:20;8;8;7
80935;PMS7003;70392;51.144;17.050;2023-07-20T11:54:39;9;8;6
80935;PMS7003;70392;51.144;17.050;2023-07-20T11:57:00;10;10;7
80935;PMS7003;70392;51.144;17.050;2023-07-20T11:59:20;10;10;7
80935;PMS7003;70392;51.144;17.050;2023-07-20T12:01:36;15;12;8
80935;PMS7003;70392;51.144;17.050;2023-07-20T12:03:55;11;11;9
80935;PMS7003;70392;51.144;17.050;2023-07-20T12:06:13;11;11;7
80935;PMS7003;70392;51.144;17.050;2023-07-20T12:08:30;17;11;8
80935;PMS7003;70392;51.144;17.050;2023-07-20T12:10:48;8;8;6
80935;PMS7003;70392;51.144;17.050;2023-07-20T12:13:35;10;8;5
80935;PMS7003;70392;51.144;17.050;2023-07-20T12:15:52;16;11;9
80935;PMS7003;70392;51.144;17.050;2023-07-20T12:18:10;15;15;8
80935;PMS7003;70392;51.144;17.050;2023-07-20T12:20:30;13;11;7
80935;PMS7003;70392;51.144;17.050;2023-07-20T12:22:51;10;7;7
80935;PMS7003;70392;51.144;17.050;2023-07-20T12:25:07;12;11;8
80935;PMS7003;70392;51.144;17.050;2023-07-20T12:27:44;13;12;7
80935;PMS7003;70392;51.144;17.050;2023-07-20T12:30:00;13;12;7
80935;PMS7003;70392;51.144;17.050;2023-07-20T12:32:18;17;12;8
80935;PMS7003;70392;51.144;17.050;2023-07-20T12:34:42;10;10;7
80935;PMS7003;70392;51.144;17.050;2023-07-20T12:37:02;11;10;7
80935;PMS7003;70392;51.144;17.050;2023-07-20T12:39:23;9;9;7
80935;PMS7003;70392;51.144;17.050;2023-07-20T12:41:39;11;11;7
80935;PMS7003;70392;51.144;17.050;2023-07-20T12:43:56;13;8;7
80935;PMS7003;70392;51.144;17.050;2023-07-20T12:46:14;8;8;6
80935;PMS7003;70392;51.144;17.050;2023-07-20T12:48:30;7;7;5
80935;PMS7003;70392;51.144;17.050;2023-07-20T12:50:47;12;9;7
80935;PMS7003;70392;51.144;17.050;2023-07-20T12:53:04;7;7;6
80935;PMS7003;70392;51.144;17.050;2023-07-20T12:55:23;9;9;8
80935;PMS7003;70392;51.144;17.050;2023-07-20T12:57:40;13;13;8
80935;PMS7003;70392;51.144;17.050;2023-07-20T12:59:59;13;13;8
80935;PMS7003;70392;51.144;17.050;2023-07-20T13:02:15;8;8;5
80935;PMS7003;70392;51.144;17.050;2023-07-20T13:04:34;4;4;3
80935;PMS7003;70392;51.144;17.050;2023-07-20T13:06:50;6;6;5
80935;PMS7003;70392;51.144;17.050;2023-07-20T13:09:16;5;5;4
80935;PMS7003;70392;51.144;17.050;2023-07-20T13:11:34;5;5;4
80935;PMS7003;70392;51.144;17.050;2023-07-20T13:13:51;6;6;5
80935;PMS7003;70392;51.144;17.050;2023-07-20T13:16:14;7;6;6
80935;PMS7003;70392;51.144;17.050;2023-07-20T13:18:33;8;6;4
80935;PMS7003;70392;51.144;17.050;2023-07-20T13:20:49;6;6;4
80935;PMS7003;70392;51.144;17.050;2023-07-20T13:23:07;6;6;6
80935;PMS7003;70392;51.144;17.050;2023-07-20T13:25:24;7;7;4
80935;PMS7003;70392;51.144;17.050;2023-07-20T13:27:41;8;8;7
80935;PMS7003;70392;51.144;17.050;2023-07-20T13:30:08;5;4;4
80935;PMS7003;70392;51.144;17.050;2023-07-20T13:32:32;7;7;5
80935;PMS7003;70392;51.144;17.050;2023-07-20T13:34:51;8;8;5
80935;PMS7003;70392;51.144;17.050;2023-07-20T13:37:07;5;5;5
80935;PMS7003;70392;51.144;17.050;2023-07-20T13:39:38;6;5;4
80935;PMS7003;70392;51.144;17.050;2023-07-20T13:41:58;6;6;5
80935;PMS7003;70392;51.144;17.050;2023-07-20T13:44:17;4;4;4
80935;PMS7003;70392;51.144;17.050;2023-07-20T13:46:41;4;4;3
80935;PMS7003;70392;51.144;17.050;2023-07-20T13:48:57;4;4;2
80935;PMS7003;70392;51.144;17.050;2023-07-20T13:51:17;4;4;3
80935;PMS7003;70392;51.144;17.050;2023-07-20T13:53:33;5;5;4
80935;PMS7003;70392;51.144;17.050;2023-07-20T13:55:57;4;4;3
80935;PMS7003;70392;51.144;17.050;2023-07-20T13:58:15;3;3;3
80935;PMS7003;70392;51.144;17.050;2023-07-20T14:00:34;4;4;4
80935;PMS7003;70392;51.144;17.050;2023-07-20T14:02:51;5;5;3
80935;PMS7003;70392;51.144;17.050;2023-07-20T14:05:08;7;7;4
80935;PMS7003;70392;51.144;17.050;2023-07-20T14:07:28;6;6;5
80935;PMS7003;70392;51.144;17.050;2023-07-20T14:09:49;4;4;3
80935;PMS7003;70392;51.144;17.050;2023-07-20T14:12:08;5;5;4
80935;PMS7003;70392;51.144;17.050;2023-07-20T14:14:29;11;7;5
80935;PMS7003;70392;51.144;17.050;2023-07-20T14:16:46;6;5;5
80935;PMS7003;70392;51.144;17.050;2023-07-20T14:19:09;6;6;6
80935;PMS7003;70392;51.144;17.050;2023-07-20T14:21:26;5;5;4
80935;PMS7003;70392;51.144;17.050;2023-07-20T14:23:45;4;4;4
80935;PMS7003;70392;51.144;17.050;2023-07-20T14:26:08;4;4;4
80935;PMS7003;70392;51.144;17.050;2023-07-20T14:28:32;7;7;4
80935;PMS7003;70392;51.144;17.050;2023-07-20T14:30:49;5;5;4
80935;PMS7003;70392;51.144;17.050;2023-07-20T14:33:07;5;4;4
80935;PMS7003;70392;51.144;17.050;2023-07-20T14:35:28;5;5;4
80935;PMS7003;70392;51.144;17.050;2023-07-20T14:37:44;6;6;5
80935;PMS7003;70392;51.144;17.050;2023-07-20T14:40:02;5;5;4
80935;PMS7003;70392;51.144;17.050;2023-07-20T14:42:21;6;6;5
80935;PMS7003;70392;51.144;17.050;2023-07-20T14:44:38;7;7;5
80935;PMS7003;70392;51.144;17.050;2023-07-20T14:46:56;6;6;4
80935;PMS7003;70392;51.144;17.050;2023-07-20T14:49:13;6;4;4
80935;PMS7003;70392;51.144;17.050;2023-07-20T14:51:29;3;3;2
80935;PMS7003;70392;51.144;17.050;2023-07-20T14:53:51;8;8;6
80935;PMS7003;70392;51.144;17.050;2023-07-20T14:56:09;6;6;4
80935;PMS7003;70392;51.144;17.050;2023-07-20T14:58:25;6;5;4
80935;PMS7003;70392;51.144;17.050;2023-07-20T15:00:48;6;6;5
80935;PMS7003;70392;51.144;17.050;2023-07-20T15:03:06;7;7;6
80935;PMS7003;70392;51.144;17.050;2023-07-20T15:05:34;8;8;5
80935;PMS7003;70392;51.144;17.050;2023-07-20T15:07:53;8;8;5
80935;PMS7003;70392;51.144;17.050;2023-07-20T15:10:29;5;5;5
80935;PMS7003;70392;51.144;17.050;2023-07-20T15:12:46;7;7;4
80935;PMS7003;70392;51.144;17.050;2023-07-20T15:15:12;5;5;5
80935;PMS7003;70392;51.144;17.050;2023-07-20T15:17:29;5;5;4
80935;PMS7003;70392;51.144;17.050;2023-07-20T15:19:47;5;5;4
80935;PMS7003;70392;51.144;17.050;2023-07-20T15:22:05;5;5;4
80935;PMS7003;70392;51.144;17.050;2023-07-20T15:24:22;6;6;5
80935;PMS7003;70392;51.144;17.050;2023-07-20T15:26:39;5;4;4
80935;PMS7003;70392;51.144;17.050;2023-07-20T15:28:59;4;3;3
80935;PMS7003;70392;51.144;17.050;2023-07-20T15:31:15;5;5;3
80935;PMS7003;70392;51.144;17.050;2023-07-20T15:33:31;6;6;4
80935;PMS7003;70392;51.144;17.050;2023-07-20T15:35:48;3;3;2
80935;PMS7003;70392;51.144;17.050;2023-07-20T15:38:04;5;4;3
80935;PMS7003;70392;51.144;17.050;2023-07-20T15:40:20;3;3;3
80935;PMS7003;70392;51.144;17.050;2023-07-20T15:42:40;4;4;4
80935;PMS7003;70392;51.144;17.050;2023-07-20T15:44:56;5;4;3
80935;PMS7003;70392;51.144;17.050;2023-07-20T15:47:13;3;3;3
80935;PMS7003;70392;51.144;17.050;2023-07-20T15:49:30;4;4;3
80935;PMS7003;70392;51.144;17.050;2023-07-20T15:51:46;6;5;4
80935;PMS7003;70392;51.144;17.050;2023-07-20T15:54:09;4;4;4
80935;PMS7003;70392;51.144;17.050;2023-07-20T15:56:29;4;4;3
80935;PMS7003;70392;51.144;17.050;2023-07-20T15:58:45;5;4;3
80935;PMS7003;70392;51.144;17.050;2023-07-20T16:01:02;4;4;2
80935;PMS7003;70392;51.144;17.050;2023-07-20T16:03:20;4;4;3
80935;PMS7003;70392;51.144;17.050;2023-07-20T16:05:38;3;3;3
80935;PMS7003;70392;51.144;17.050;2023-07-20T16:08:00;3;3;3
80935;PMS7003;70392;51.144;17.050;2023-07-20T16:10:36;5;5;3
80935;PMS7003;70392;51.144;17.050;2023-07-20T16:12:52;3;3;3
80935;PMS7003;70392;51.144;17.050;2023-07-20T16:15:09;3;3;3
80935;PMS7003;70392;51.144;17.050;2023-07-20T16:17:26;3;3;2
80935;PMS7003;70392;51.144;17.050;2023-07-20T16:19:42;2;2;2
80935;PMS7003;70392;51.144;17.050;2023-07-20T16:21:58;3;3;2
80935;PMS7003;70392;51.144;17.050;2023-07-20T16:24:19;6;5;3
80935;PMS7003;70392;51.144;17.050;2023-07-20T16:26:36;4;3;2
80935;PMS7003;70392;51.144;17.050;2023-07-20T16:28:54;2;2;1
80935;PMS7003;70392;51.144;17.050;2023-07-20T16:31:10;2;2;2
80935;PMS7003;70392;51.144;17.050;2023-07-20T16:33:28;3;3;3
80935;PMS7003;70392;51.144;17.050;2023-07-20T16:35:44;6;2;2
80935;PMS7003;70392;51.144;17.050;2023-07-20T16:38:04;3;3;3
80935;PMS7003;70392;51.144;17.050;2023-07-20T16:40:21;1;1;0
80935;PMS7003;70392;51.144;17.050;2023-07-20T16:42:38;4;2;2
80935;PMS7003;70392;51.144;17.050;2023-07-20T16:44:54;4;4;2
80935;PMS7003;70392;51.144;17.050;2023-07-20T16:47:11;2;2;2
80935;PMS7003;70392;51.144;17.050;2023-07-20T16:49:28;2;2;2
80935;PMS7003;70392;51.144;17.050;2023-07-20T16:51:50;2;2;1
80935;PMS7003;70392;51.144;17.050;2023-07-20T16:54:06;2;2;1
80935;PMS7003;70392;51.144;17.050;2023-07-20T16:56:44;2;2;1
80935;PMS7003;70392;51.144;17.050;2023-07-20T16:59:01;2;2;2
80935;PMS7003;70392;51.144;17.050;2023-07-20T17:01:17;5;5;3
80935;PMS7003;70392;51.144;17.050;2023-07-20T17:03:34;4;4;2
80935;PMS7003;70392;51.144;17.050;2023-07-20T17:05:52;3;3;2
80935;PMS7003;70392;51.144;17.050;2023-07-20T17:08:12;2;2;2
80935;PMS7003;70392;51.144;17.050;2023-07-20T17:10:50;3;3;2
80935;PMS7003;70392;51.144;17.050;2023-07-20T17:13:08;3;3;2
80935;PMS7003;70392;51.144;17.050;2023-07-20T17:15:28;6;6;4
80935;PMS7003;70392;51.144;17.050;2023-07-20T17:17:44;6;6;4
80935;PMS7003;70392;51.144;17.050;2023-07-20T17:20:00;6;6;4
80935;PMS7003;70392;51.144;17.050;2023-07-20T17:22:33;4;4;4
80935;PMS7003;70392;51.144;17.050;2023-07-20T17:24:50;2;2;2
80935;PMS7003;70392;51.144;17.050;2023-07-20T17:27:06;3;3;2
80935;PMS7003;70392;51.144;17.050;2023-07-20T17:29:22;8;4;2
80935;PMS7003;70392;51.144;17.050;2023-07-20T17:31:39;5;5;4
80935;PMS7003;70392;51.144;17.050;2023-07-20T17:33:57;4;2;1
80935;PMS7003;70392;51.144;17.050;2023-07-20T17:36:15;7;7;3
80935;PMS7003;70392;51.144;17.050;2023-07-20T17:38:43;4;3;3
80935;PMS7003;70392;51.144;17.050;2023-07-20T17:40:59;4;4;2
80935;PMS7003;70392;51.144;17.050;2023-07-20T17:43:17;3;3;2
80935;PMS7003;70392;51.144;17.050;2023-07-20T17:45:33;2;2;2
80935;PMS7003;70392;51.144;17.050;2023-07-20T17:47:50;3;3;2
80935;PMS7003;70392;51.144;17.050;2023-07-20T17:50:06;2;2;2
80935;PMS7003;70392;51.144;17.050;2023-07-20T17:52:26;3;3;3
80935;PMS7003;70392;51.144;17.050;2023-07-20T17:54:43;3;3;3
80935;PMS7003;70392;51.144;17.050;2023-07-20T17:57:00;3;3;2
80935;PMS7003;70392;51.144;17.050;2023-07-20T17:59:17;2;2;1
80935;PMS7003;70392;51.144;17.050;2023-07-20T18:01:36;2;2;2
80935;PMS7003;70392;51.144;17.050;2023-07-20T18:03:52;3;3;2
80935;PMS7003;70392;51.144;17.050;2023-07-20T18:06:16;2;2;2
80935;PMS7003;70392;51.144;17.050;2023-07-20T18:08:34;3;3;3
80935;PMS7003;70392;51.144;17.050;2023-07-20T18:10:51;3;3;3
80935;PMS7003;70392;51.144;17.050;2023-07-20T18:13:08;2;2;1
80935;PMS7003;70392;51.144;17.050;2023-07-20T18:15:25;6;5;3
80935;PMS7003;70392;51.144;17.050;2023-07-20T18:17:42;3;3;2
80935;PMS7003;70392;51.144;17.050;2023-07-20T18:20:04;3;3;2
80935;PMS7003;70392;51.144;17.050;2023-07-20T18:22:22;2;2;1
80935;PMS7003;70392;51.144;17.050;2023-07-20T18:24:40;2;2;2
80935;PMS7003;70392;51.144;17.050;2023-07-20T18:26:58;4;4;3
80935;PMS7003;70392;51.144;17.050;2023-07-20T18:29:15;3;3;2
80935;PMS7003;70392;51.144;17.050;2023-07-20T18:31:31;4;4;3
80935;PMS7003;70392;51.144;17.050;2023-07-20T18:33:51;3;3;2
80935;PMS7003;70392;51.144;17.050;2023-07-20T18:36:07;2;2;2
80935;PMS7003;70392;51.144;17.050;2023-07-20T18:38:23;3;3;2
80935;PMS7003;70392;51.144;17.050;2023-07-20T18:40:40;3;3;2
80935;PMS7003;70392;51.144;17.050;2023-07-20T18:42:57;5;3;2
80935;PMS7003;70392;51.144;17.050;2023-07-20T18:45:31;3;3;2
80935;PMS7003;70392;51.144;17.050;2023-07-20T18:47:49;2;2;1
80935;PMS7003;70392;51.144;17.050;2023-07-20T18:50:07;2;2;2
80935;PMS7003;70392;51.144;17.050;2023-07-20T18:52:28;5;3;1
80935;PMS7003;70392;51.144;17.050;2023-07-20T18:54:45;2;2;2